createdAt,value
2018-08-25T00:00:19.509Z,16.75
2018-08-25T00:01:19.577Z,16.72
2018-08-25T00:02:19.649Z,16.74
2018-08-25T00:03:19.709Z,16.75
2018-08-25T00:04:19.769Z,16.75
2018-08-25T00:05:19.832Z,16.76
2018-08-25T00:06:19.893Z,16.74
2018-08-25T00:07:19.969Z,16.72
2018-08-25T00:08:20.029Z,16.68
2018-08-25T00:09:20.089Z,16.76
2018-08-25T00:10:20.153Z,16.75
2018-08-25T00:11:20.221Z,16.81
2018-08-25T00:12:20.468Z,16.84
2018-08-25T00:13:20.348Z,16.79
2018-08-25T00:14:20.409Z,16.78
2018-08-25T00:15:20.475Z,16.84
2018-08-25T00:16:20.542Z,16.81
2018-08-25T00:17:20.605Z,16.79
2018-08-25T00:18:20.670Z,16.87
2018-08-25T00:19:20.729Z,16.79
2018-08-25T00:20:20.794Z,16.78
2018-08-25T00:21:20.858Z,16.81
2018-08-25T00:22:20.927Z,16.83
2018-08-25T00:23:20.997Z,16.91
2018-08-25T00:24:21.055Z,16.83
2018-08-25T00:25:21.119Z,16.81
2018-08-25T00:26:21.178Z,16.81
2018-08-25T00:27:21.241Z,16.79
2018-08-25T00:28:21.433Z,16.84
2018-08-25T00:29:21.373Z,16.83
2018-08-25T00:30:21.435Z,16.78
2018-08-25T00:31:21.503Z,16.74
2018-08-25T00:32:21.562Z,16.72
2018-08-25T00:33:21.634Z,16.79
2018-08-25T00:34:21.698Z,16.79
2018-08-25T00:35:21.754Z,16.76
2018-08-25T00:36:21.822Z,16.75
2018-08-25T00:37:21.882Z,16.78
2018-08-25T00:38:21.956Z,16.84
2018-08-25T00:39:22.019Z,16.81
2018-08-25T00:40:22.078Z,16.74
2018-08-25T00:41:22.369Z,16.71
2018-08-25T00:42:22.203Z,16.71
2018-08-25T00:43:22.277Z,16.71
2018-08-25T00:44:22.351Z,16.71
2018-08-25T00:45:22.395Z,16.66
2018-08-25T00:46:22.459Z,16.72
2018-08-25T00:47:22.523Z,16.75
2018-08-25T00:48:22.587Z,16.69
2018-08-25T00:49:22.659Z,16.69
2018-08-25T00:50:22.723Z,16.71
2018-08-25T00:51:22.779Z,16.69
2018-08-25T00:52:22.846Z,16.71
2018-08-25T00:53:22.907Z,16.69
2018-08-25T00:54:22.983Z,16.66
2018-08-25T00:55:23.043Z,16.72
2018-08-25T00:56:23.099Z,16.68
2018-08-25T00:57:23.176Z,16.72
2018-08-25T00:58:23.236Z,16.65
2018-08-25T00:59:23.608Z,16.69
2018-08-25T01:00:23.355Z,16.68
2018-08-25T01:01:23.420Z,16.68
2018-08-25T01:02:23.483Z,16.64
2018-08-25T01:03:23.550Z,16.69
2018-08-25T01:04:23.620Z,16.65
2018-08-25T01:05:23.684Z,16.74
2018-08-25T01:06:23.740Z,16.65
2018-08-25T01:07:23.804Z,16.66
2018-08-25T01:08:23.868Z,16.71
2018-08-25T01:09:23.940Z,16.65
2018-08-25T01:10:24.004Z,16.72
2018-08-25T01:11:24.060Z,16.68
2018-08-25T01:12:24.124Z,16.71
2018-08-25T01:13:24.188Z,16.61
2018-08-25T01:14:24.253Z,16.69
2018-08-25T01:15:24.654Z,16.75
2018-08-25T01:16:24.380Z,16.71
2018-08-25T01:17:24.444Z,16.64
2018-08-25T01:18:24.508Z,16.58
2018-08-25T01:19:24.572Z,16.68
2018-08-25T01:20:24.636Z,16.71
2018-08-25T01:21:24.864Z,16.71
2018-08-25T01:22:24.770Z,16.64
2018-08-25T01:23:24.829Z,16.57
2018-08-25T01:24:24.892Z,16.66
2018-08-25T01:25:24.960Z,16.61
2018-08-25T01:26:25.028Z,16.58
2018-08-25T01:27:25.092Z,16.61
2018-08-25T01:28:25.149Z,16.71
2018-08-25T01:29:25.212Z,16.60
2018-08-25T01:30:25.277Z,16.75
2018-08-25T01:31:25.348Z,16.68
2018-08-25T01:32:25.412Z,16.68
2018-08-25T01:33:25.469Z,16.66
2018-08-25T01:34:25.532Z,16.57
2018-08-25T01:35:25.597Z,16.68
2018-08-25T01:36:25.672Z,16.65
2018-08-25T01:37:25.733Z,16.64
2018-08-25T01:38:25.789Z,16.65
2018-08-25T01:39:25.852Z,16.61
2018-08-25T01:40:25.916Z,16.60
2018-08-25T01:41:25.992Z,16.66
2018-08-25T01:42:26.052Z,16.65
2018-08-25T01:43:26.117Z,16.58
2018-08-25T01:44:26.172Z,16.61
2018-08-25T01:45:26.237Z,16.69
2018-08-25T01:46:26.636Z,16.69
2018-08-25T01:47:26.361Z,16.61
2018-08-25T01:48:26.428Z,16.68
2018-08-25T01:49:26.492Z,16.71
2018-08-25T01:50:26.556Z,16.61
2018-08-25T01:51:26.621Z,16.66
2018-08-25T01:52:26.705Z,16.69
2018-08-25T01:53:26.745Z,16.68
2018-08-25T01:54:26.813Z,16.71
2018-08-25T01:55:26.877Z,16.64
2018-08-25T01:56:26.943Z,16.75
2018-08-25T01:57:27.013Z,16.76
2018-08-25T01:58:27.077Z,16.65
2018-08-25T01:59:27.135Z,16.69
2018-08-25T02:00:27.196Z,16.68
2018-08-25T02:01:27.261Z,16.65
2018-08-25T02:02:27.421Z,16.72
2018-08-25T02:03:27.390Z,16.76
2018-08-25T02:04:27.454Z,16.76
2018-08-25T02:05:27.517Z,16.66
2018-08-25T02:06:27.581Z,16.68
2018-08-25T02:07:27.653Z,16.71
2018-08-25T02:08:27.718Z,16.72
2018-08-25T02:09:27.773Z,16.74
2018-08-25T02:10:27.839Z,16.69
2018-08-25T02:11:27.901Z,16.75
2018-08-25T02:12:27.973Z,16.74
2018-08-25T02:13:28.038Z,16.75
2018-08-25T02:14:28.097Z,16.72
2018-08-25T02:15:28.157Z,16.74
2018-08-25T02:16:28.222Z,16.72
2018-08-25T02:17:28.518Z,16.72
2018-08-25T02:18:28.350Z,16.76
2018-08-25T02:19:28.417Z,16.79
2018-08-25T02:20:28.482Z,16.76
2018-08-25T02:21:28.546Z,16.69
2018-08-25T02:22:28.610Z,16.72
2018-08-25T02:23:28.674Z,16.68
2018-08-25T02:24:28.734Z,16.71
2018-08-25T02:25:28.798Z,16.72
2018-08-25T02:26:28.862Z,16.71
2018-08-25T02:27:28.930Z,16.81
2018-08-25T02:28:28.995Z,16.68
2018-08-25T02:29:29.058Z,16.69
2018-08-25T02:30:29.122Z,16.72
2018-08-25T02:31:29.182Z,16.74
2018-08-25T02:32:29.246Z,16.74
2018-08-25T02:33:29.442Z,16.71
2018-08-25T02:34:29.371Z,16.78
2018-08-25T02:35:29.443Z,16.68
2018-08-25T02:36:29.502Z,16.76
2018-08-25T02:37:29.567Z,16.75
2018-08-25T02:38:29.640Z,16.68
2018-08-25T02:39:29.698Z,16.66
2018-08-25T02:40:29.759Z,16.75
2018-08-25T02:41:29.822Z,16.72
2018-08-25T02:42:29.882Z,16.72
2018-08-25T02:43:29.959Z,16.76
2018-08-25T02:44:30.019Z,16.72
2018-08-25T02:45:30.079Z,16.71
2018-08-25T02:46:30.139Z,16.71
2018-08-25T02:47:30.203Z,16.68
2018-08-25T02:48:30.267Z,16.71
2018-08-25T02:49:30.451Z,16.71
2018-08-25T02:50:30.398Z,16.75
2018-08-25T02:51:30.459Z,16.68
2018-08-25T02:52:30.524Z,16.68
2018-08-25T02:53:30.590Z,16.68
2018-08-25T02:54:30.659Z,16.69
2018-08-25T02:55:30.723Z,16.69
2018-08-25T02:56:30.780Z,16.72
2018-08-25T02:57:30.868Z,16.60
2018-08-25T02:58:30.912Z,16.54
2018-08-25T02:59:30.984Z,16.57
2018-08-25T03:00:31.048Z,16.58
2018-08-25T03:01:31.100Z,16.58
2018-08-25T03:02:31.164Z,16.60
2018-08-25T03:03:31.227Z,16.51
2018-08-25T03:04:31.292Z,16.51
2018-08-25T03:05:31.525Z,16.39
2018-08-25T03:06:31.425Z,16.24
2018-08-25T03:07:31.484Z,16.23
2018-08-25T03:08:31.548Z,15.98
2018-08-25T03:09:31.612Z,15.77
2018-08-25T03:10:31.684Z,15.57
2018-08-25T03:11:31.752Z,15.43
2018-08-25T03:12:31.804Z,15.28
2018-08-25T03:13:31.868Z,15.10
2018-08-25T03:14:31.932Z,15.02
2018-08-25T03:15:32.001Z,14.92
2018-08-25T03:16:32.064Z,14.92
2018-08-25T03:17:32.124Z,14.89
2018-08-25T03:18:32.188Z,14.72
2018-08-25T03:19:32.252Z,14.78
2018-08-25T03:20:32.317Z,14.70
2018-08-25T03:21:32.653Z,14.72
2018-08-25T03:22:32.441Z,14.66
2018-08-25T03:23:32.504Z,14.68
2018-08-25T03:24:32.573Z,14.70
2018-08-25T03:25:32.632Z,14.77
2018-08-25T03:26:32.700Z,14.81
2018-08-25T03:27:32.765Z,14.77
2018-08-25T03:28:32.824Z,14.79
2018-08-25T03:29:32.890Z,14.77
2018-08-25T03:30:32.951Z,14.85
2018-08-25T03:31:33.021Z,14.81
2018-08-25T03:32:33.090Z,14.88
2018-08-25T03:33:33.141Z,14.79
2018-08-25T03:34:33.206Z,14.89
2018-08-25T03:35:33.273Z,14.81
2018-08-25T03:36:33.454Z,14.85
2018-08-25T03:37:33.401Z,14.88
2018-08-25T03:38:33.465Z,14.81
2018-08-25T03:39:33.525Z,14.77
2018-08-25T03:40:33.589Z,14.66
2018-08-25T03:41:33.659Z,14.69
2018-08-25T03:42:33.726Z,14.77
2018-08-25T03:43:33.777Z,14.68
2018-08-25T03:44:33.841Z,14.72
2018-08-25T03:45:33.918Z,14.72
2018-08-25T03:46:33.980Z,14.73
2018-08-25T03:47:34.037Z,14.72
2018-08-25T03:48:34.097Z,14.70
2018-08-25T03:49:34.161Z,14.70
2018-08-25T03:50:34.222Z,14.72
2018-08-25T03:51:34.285Z,14.77
2018-08-25T03:52:34.461Z,14.73
2018-08-25T03:53:34.414Z,14.79
2018-08-25T03:54:34.478Z,14.82
2018-08-25T03:55:34.683Z,14.79
2018-08-25T03:56:34.606Z,14.70
2018-08-25T03:57:34.675Z,14.69
2018-08-25T03:58:34.740Z,14.70
2018-08-25T03:59:34.796Z,14.66
2018-08-25T04:00:34.858Z,14.69
2018-08-25T04:01:35.009Z,14.70
2018-08-25T04:02:34.990Z,14.69
2018-08-25T04:03:35.058Z,14.69
2018-08-25T04:04:35.114Z,14.65
2018-08-25T04:05:35.179Z,14.65
2018-08-25T04:06:35.246Z,14.66
2018-08-25T04:07:35.327Z,14.60
2018-08-25T04:08:35.366Z,14.65
2018-08-25T04:09:35.430Z,14.65
2018-08-25T04:10:35.494Z,14.63
2018-08-25T04:11:35.558Z,14.72
2018-08-25T04:12:35.626Z,14.63
2018-08-25T04:13:35.690Z,14.62
2018-08-25T04:14:35.746Z,14.62
2018-08-25T04:15:35.811Z,14.66
2018-08-25T04:16:35.878Z,14.66
2018-08-25T04:17:35.946Z,14.62
2018-08-25T04:18:36.007Z,14.58
2018-08-25T04:19:36.069Z,14.62
2018-08-25T04:20:36.131Z,14.60
2018-08-25T04:21:36.192Z,14.59
2018-08-25T04:22:36.495Z,14.60
2018-08-25T04:23:36.319Z,14.60
2018-08-25T04:24:36.383Z,14.65
2018-08-25T04:25:36.447Z,14.60
2018-08-25T04:26:36.511Z,14.59
2018-08-25T04:27:36.579Z,14.55
2018-08-25T04:28:36.647Z,14.66
2018-08-25T04:29:36.701Z,14.68
2018-08-25T04:30:36.759Z,14.69
2018-08-25T04:31:36.830Z,14.72
2018-08-25T04:32:36.895Z,14.68
2018-08-25T04:33:36.975Z,14.73
2018-08-25T04:34:37.016Z,14.73
2018-08-25T04:35:37.080Z,14.65
2018-08-25T04:36:37.145Z,14.66
2018-08-25T04:37:37.217Z,14.65
2018-08-25T04:38:37.508Z,14.65
2018-08-25T04:39:37.335Z,14.68
2018-08-25T04:40:37.403Z,14.59
2018-08-25T04:41:37.464Z,14.55
2018-08-25T04:42:37.524Z,14.63
2018-08-25T04:43:37.603Z,14.53
2018-08-25T04:44:37.659Z,14.40
2018-08-25T04:45:37.716Z,14.33
2018-08-25T04:46:37.780Z,14.41
2018-08-25T04:47:37.843Z,14.30
2018-08-25T04:48:37.911Z,14.25
2018-08-25T04:49:37.975Z,14.18
2018-08-25T04:50:38.031Z,14.15
2018-08-25T04:51:38.096Z,14.23
2018-08-25T04:52:38.167Z,14.23
2018-08-25T04:53:38.460Z,14.20
2018-08-25T04:54:38.292Z,14.17
2018-08-25T04:55:38.348Z,14.22
2018-08-25T04:56:38.414Z,14.20
2018-08-25T04:57:38.476Z,14.08
2018-08-25T04:58:38.544Z,14.17
2018-08-25T04:59:38.608Z,14.20
2018-08-25T05:00:38.668Z,14.18
2018-08-25T05:01:38.729Z,14.18
2018-08-25T05:02:38.848Z,14.18
2018-08-25T05:03:38.864Z,14.22
2018-08-25T05:04:38.924Z,14.17
2018-08-25T05:05:38.984Z,14.28
2018-08-25T05:06:39.044Z,14.23
2018-08-25T05:07:39.196Z,14.15
2018-08-25T05:08:39.327Z,14.17
2018-08-25T05:09:39.237Z,14.15
2018-08-25T05:10:39.300Z,14.15
2018-08-25T05:11:39.365Z,14.17
2018-08-25T05:12:39.425Z,14.22
2018-08-25T05:13:39.501Z,14.23
2018-08-25T05:14:39.562Z,14.18
2018-08-25T05:15:39.617Z,14.11
2018-08-25T05:16:39.680Z,14.25
2018-08-25T05:17:39.745Z,14.15
2018-08-25T05:18:39.812Z,14.11
2018-08-25T05:19:39.886Z,14.11
2018-08-25T05:20:39.933Z,14.17
2018-08-25T05:21:39.997Z,14.17
2018-08-25T05:22:40.058Z,14.18
2018-08-25T05:23:40.133Z,14.17
2018-08-25T05:24:40.185Z,14.15
2018-08-25T05:25:40.249Z,14.17
2018-08-25T05:26:40.313Z,14.07
2018-08-25T05:27:40.377Z,14.05
2018-08-25T05:28:40.445Z,14.05
2018-08-25T05:29:40.505Z,14.03
2018-08-25T05:30:40.565Z,14.00
2018-08-25T05:31:40.633Z,13.95
2018-08-25T05:32:40.693Z,14.03
2018-08-25T05:33:40.761Z,14.07
2018-08-25T05:34:40.825Z,14.04
2018-08-25T05:35:40.882Z,14.10
2018-08-25T05:36:40.945Z,14.18
2018-08-25T05:37:41.009Z,14.17
2018-08-25T05:39:02.104Z,14.25
2018-08-25T05:39:41.133Z,14.29
2018-08-25T05:40:41.200Z,14.29
2018-08-25T05:41:41.262Z,14.32
2018-08-25T05:42:41.326Z,14.40
2018-08-25T05:43:41.398Z,14.45
2018-08-25T05:44:41.458Z,14.44
2018-08-25T05:45:41.530Z,14.51
2018-08-25T05:46:41.578Z,14.43
2018-08-25T05:47:41.641Z,14.54
2018-08-25T05:48:41.715Z,14.45
2018-08-25T05:49:41.782Z,14.50
2018-08-25T05:50:41.834Z,14.44
2018-08-25T05:51:41.903Z,14.30
2018-08-25T05:52:41.962Z,14.28
2018-08-25T05:53:42.030Z,14.29
2018-08-25T05:54:42.094Z,14.35
2018-08-25T05:55:42.151Z,14.29
2018-08-25T05:56:42.214Z,14.32
2018-08-25T05:57:42.392Z,14.28
2018-08-25T05:58:42.347Z,14.18
2018-08-25T05:59:42.411Z,14.23
2018-08-25T06:00:42.467Z,14.29
2018-08-25T06:01:42.531Z,14.22
2018-08-25T06:02:42.595Z,14.14
2018-08-25T06:03:42.663Z,14.26
2018-08-25T06:04:42.731Z,13.97
2018-08-25T06:05:42.787Z,14.03
2018-08-25T06:06:42.981Z,14.12
2018-08-25T06:07:42.915Z,14.05
2018-08-25T06:08:42.983Z,14.18
2018-08-25T06:09:43.047Z,14.32
2018-08-25T06:10:43.105Z,14.32
2018-08-25T06:11:43.167Z,14.50
2018-08-25T06:12:43.231Z,14.53
2018-08-25T06:13:43.384Z,14.70
2018-08-25T06:14:43.356Z,14.60
2018-08-25T06:15:43.419Z,14.62
2018-08-25T06:16:43.483Z,14.59
2018-08-25T06:17:43.563Z,14.58
2018-08-25T06:18:43.619Z,14.63
2018-08-25T06:19:43.686Z,14.73
2018-08-25T06:20:43.743Z,14.78
2018-08-25T06:21:43.799Z,14.82
2018-08-25T06:22:43.864Z,14.72
2018-08-25T06:23:43.939Z,14.88
2018-08-25T06:24:43.999Z,15.00
2018-08-25T06:25:44.056Z,15.00
2018-08-25T06:26:44.120Z,15.00
2018-08-25T06:27:44.184Z,15.10
2018-08-25T06:28:44.491Z,15.31
2018-08-25T06:29:44.384Z,15.42
2018-08-25T06:30:44.564Z,15.44
2018-08-25T06:31:44.436Z,15.37
2018-08-25T06:32:44.496Z,15.42
2018-08-25T06:33:44.581Z,15.17
2018-08-25T06:34:44.635Z,15.10
2018-08-25T06:35:44.692Z,15.00
2018-08-25T06:36:44.816Z,15.00
2018-08-25T06:37:44.820Z,14.92
2018-08-25T06:38:44.892Z,14.77
2018-08-25T06:39:44.964Z,14.78
2018-08-25T06:40:45.012Z,14.69
2018-08-25T06:41:45.076Z,14.66
2018-08-25T06:42:45.140Z,14.65
2018-08-25T06:43:45.488Z,14.94
2018-08-25T06:44:45.268Z,15.00
2018-08-25T06:45:45.333Z,15.00
2018-08-25T06:46:45.392Z,15.00
2018-08-25T06:47:45.459Z,14.88
2018-08-25T06:48:45.529Z,14.99
2018-08-25T06:49:45.592Z,15.02
2018-08-25T06:50:45.648Z,14.92
2018-08-25T06:51:45.717Z,15.00
2018-08-25T06:52:45.776Z,15.00
2018-08-25T06:53:45.852Z,14.96
2018-08-25T06:54:45.912Z,15.02
2018-08-25T06:55:45.973Z,15.00
2018-08-25T06:56:46.033Z,14.97
2018-08-25T06:57:46.097Z,15.00
2018-08-25T06:58:46.176Z,15.09
2018-08-25T06:59:46.229Z,15.17
2018-08-25T07:00:46.292Z,15.11
2018-08-25T07:01:46.353Z,15.06
2018-08-25T07:02:46.418Z,14.92
2018-08-25T07:03:46.488Z,15.02
2018-08-25T07:04:46.548Z,14.99
2018-08-25T07:05:46.608Z,15.02
2018-08-25T07:06:46.669Z,15.28
2018-08-25T07:07:46.733Z,15.77
2018-08-25T07:08:46.805Z,16.57
2018-08-25T07:09:46.869Z,16.81
2018-08-25T07:10:46.929Z,17.59
2018-08-25T07:11:46.997Z,18.47
2018-08-25T07:12:47.062Z,17.82
2018-08-25T07:13:47.397Z,17.51
2018-08-25T07:14:47.189Z,17.36
2018-08-25T07:15:47.253Z,17.06
2018-08-25T07:16:47.322Z,17.56
2018-08-25T07:17:47.389Z,17.92
2018-08-25T07:18:47.471Z,17.83
2018-08-25T07:19:47.530Z,17.94
2018-08-25T07:20:47.585Z,19.12
2018-08-25T07:21:47.653Z,20.04
2018-08-25T07:22:47.721Z,20.92
2018-08-25T07:23:47.794Z,20.52
2018-08-25T07:24:47.866Z,20.02
2018-08-25T07:25:48.006Z,19.41
2018-08-25T07:26:48.060Z,18.55
2018-08-25T07:27:48.058Z,18.26
2018-08-25T07:28:48.160Z,17.82
2018-08-25T07:29:48.193Z,17.20
2018-08-25T07:30:48.262Z,16.99
2018-08-25T07:31:48.330Z,16.91
2018-08-25T07:32:48.393Z,16.69
2018-08-25T07:33:48.474Z,16.51
2018-08-25T07:34:48.534Z,16.54
2018-08-25T07:35:48.594Z,16.68
2018-08-25T07:36:48.874Z,16.69
2018-08-25T07:37:48.738Z,17.36
2018-08-25T07:38:49.506Z,16.97
2018-08-25T07:39:48.878Z,16.81
2018-08-25T07:40:48.922Z,16.47
2018-08-25T07:41:48.990Z,16.17
2018-08-25T07:42:49.065Z,16.00
2018-08-25T07:43:49.234Z,15.91
2018-08-25T07:44:49.194Z,15.92
2018-08-25T07:45:49.261Z,16.39
2018-08-25T07:46:49.322Z,17.12
2018-08-25T07:47:49.386Z,17.34
2018-08-25T07:48:49.463Z,17.38
2018-08-25T07:49:49.527Z,17.31
2018-08-25T07:50:49.587Z,17.24
2018-08-25T07:51:49.650Z,17.20
2018-08-25T07:52:49.727Z,17.65
2018-08-25T07:53:49.873Z,17.27
2018-08-25T07:54:49.855Z,17.51
2018-08-25T07:55:49.915Z,18.56
2018-08-25T07:56:49.987Z,18.43
2018-08-25T07:57:50.047Z,17.94
2018-08-25T07:58:50.141Z,17.82
2018-08-25T07:59:50.181Z,17.56
2018-08-25T08:00:50.247Z,17.19
2018-08-25T08:01:50.311Z,16.96
2018-08-25T08:02:50.379Z,16.50
2018-08-25T08:03:50.454Z,16.33
2018-08-25T08:04:50.587Z,17.06
2018-08-25T08:05:50.577Z,18.52
2018-08-25T08:06:50.639Z,19.11
2018-08-25T08:07:50.707Z,18.37
2018-08-25T08:08:50.781Z,18.23
2018-08-25T08:09:50.850Z,19.73
2018-08-25T08:10:50.913Z,20.22
2018-08-25T08:11:50.993Z,19.66
2018-08-25T08:12:51.042Z,20.31
2018-08-25T08:13:51.271Z,21.32
2018-08-25T08:14:51.176Z,22.38
2018-08-25T08:15:51.244Z,21.35
2018-08-25T08:16:51.311Z,20.43
2018-08-25T08:17:51.388Z,20.82
2018-08-25T08:18:51.455Z,21.12
2018-08-25T08:19:51.524Z,20.65
2018-08-25T08:20:51.583Z,20.21
2018-08-25T08:21:51.652Z,19.39
2018-08-25T08:22:51.719Z,18.88
2018-08-25T08:23:51.795Z,18.74
2018-08-25T08:24:51.868Z,18.90
2018-08-25T08:25:51.924Z,18.63
2018-08-25T08:26:51.987Z,18.35
2018-08-25T08:27:52.060Z,17.98
2018-08-25T08:28:52.249Z,17.65
2018-08-25T08:29:52.191Z,17.68
2018-08-25T08:30:52.264Z,18.38
2018-08-25T08:31:52.328Z,19.58
2018-08-25T08:32:52.398Z,19.39
2018-08-25T08:33:52.469Z,20.70
2018-08-25T08:34:52.536Z,20.48
2018-08-25T08:35:52.596Z,19.54
2018-08-25T08:36:52.672Z,19.00
2018-08-25T08:37:52.735Z,18.66
2018-08-25T08:38:52.804Z,19.48
2018-08-25T08:39:52.872Z,18.77
2018-08-25T08:40:52.932Z,18.88
2018-08-25T08:41:53.004Z,18.63
2018-08-25T08:42:53.068Z,19.40
2018-08-25T08:43:53.312Z,20.65
2018-08-25T08:44:53.204Z,21.46
2018-08-25T08:45:53.272Z,20.82
2018-08-25T08:46:53.340Z,21.67
2018-08-25T08:47:53.404Z,22.18
2018-08-25T08:48:53.485Z,22.26
2018-08-25T08:49:53.604Z,22.60
2018-08-25T08:50:53.613Z,22.48
2018-08-25T08:51:53.680Z,22.44
2018-08-25T08:52:53.748Z,22.78
2018-08-25T08:53:53.825Z,22.22
2018-08-25T08:54:53.893Z,22.75
2018-08-25T08:55:53.957Z,22.76
2018-08-25T08:56:54.052Z,23.28
2018-08-25T08:57:54.093Z,23.32
2018-08-25T08:58:54.193Z,23.36
2018-08-25T08:59:54.236Z,23.13
2018-08-25T09:00:54.309Z,23.10
2018-08-25T09:01:54.373Z,22.62
2018-08-25T09:02:54.441Z,22.50
2018-08-25T09:03:54.521Z,21.67
2018-08-25T09:04:54.589Z,20.62
2018-08-25T09:05:54.653Z,20.70
2018-08-25T09:06:54.721Z,20.58
2018-08-25T09:07:54.789Z,20.28
2018-08-25T09:08:54.872Z,19.95
2018-08-25T09:09:54.937Z,19.85
2018-08-25T09:10:54.997Z,21.00
2018-08-25T09:11:55.105Z,21.25
2018-08-25T09:12:55.138Z,20.36
2018-08-25T09:13:55.210Z,20.72
2018-08-25T09:14:55.369Z,21.45
2018-08-25T09:15:55.342Z,22.18
2018-08-25T09:16:55.413Z,22.45
2018-08-25T09:17:55.481Z,23.28
2018-08-25T09:18:55.550Z,23.47
2018-08-25T09:19:55.626Z,22.94
2018-08-25T09:20:55.694Z,22.33
2018-08-25T09:21:55.758Z,20.69
2018-08-25T09:22:55.826Z,20.29
2018-08-25T09:23:56.378Z,20.85
2018-08-25T09:24:56.074Z,20.75
2018-08-25T09:25:56.044Z,20.04
2018-08-25T09:26:56.104Z,19.85
2018-08-25T09:27:56.170Z,19.45
2018-08-25T09:28:56.244Z,19.19
2018-08-25T09:29:56.347Z,18.95
2018-08-25T09:30:56.374Z,18.81
2018-08-25T09:31:56.446Z,18.62
2018-08-25T09:32:56.510Z,18.77
2018-08-25T09:33:56.578Z,18.77
2018-08-25T09:34:56.651Z,19.99
2018-08-25T09:35:56.739Z,20.29
2018-08-25T09:36:57.037Z,20.47
2018-08-25T09:37:56.851Z,20.72
2018-08-25T09:38:56.914Z,20.14
2018-08-25T09:39:56.997Z,20.18
2018-08-25T09:40:57.059Z,20.16
2018-08-25T09:41:57.119Z,20.99
2018-08-25T09:42:57.187Z,21.35
2018-08-25T09:43:57.255Z,21.89
2018-08-25T09:44:57.323Z,22.20
2018-08-25T09:45:57.660Z,22.30
2018-08-25T09:46:57.471Z,22.96
2018-08-25T09:47:57.523Z,22.75
2018-08-25T09:48:57.599Z,22.75
2018-08-25T09:49:57.667Z,23.24
2018-08-25T09:50:57.735Z,23.55
2018-08-25T09:51:57.806Z,23.59
2018-08-25T09:52:57.865Z,23.50
2018-08-25T09:53:57.935Z,22.98
2018-08-25T09:54:58.000Z,22.93
2018-08-25T09:55:58.196Z,23.41
2018-08-25T09:56:58.139Z,23.48
2018-08-25T09:57:58.207Z,22.80
2018-08-25T09:58:58.391Z,23.10
2018-08-25T09:59:58.344Z,22.55
2018-08-25T10:00:58.420Z,21.83
2018-08-25T10:01:58.488Z,21.66
2018-08-25T10:02:58.547Z,21.85
2018-08-25T10:03:58.615Z,20.80
2018-08-25T10:04:58.687Z,21.35
2018-08-25T10:05:58.768Z,20.78
2018-08-25T10:06:58.827Z,20.72
2018-08-25T10:07:58.887Z,20.63
2018-08-25T10:08:58.960Z,20.28
2018-08-25T10:09:59.028Z,20.25
2018-08-25T10:10:59.414Z,20.10
2018-08-25T10:11:59.160Z,20.32
2018-08-25T10:12:59.228Z,20.60
2018-08-25T10:13:59.297Z,20.34
2018-08-25T10:14:59.364Z,20.24
2018-08-25T10:15:59.436Z,20.62
2018-08-25T10:16:59.571Z,20.99
2018-08-25T10:17:59.571Z,20.77
2018-08-25T10:18:59.637Z,20.60
2018-08-25T10:19:59.706Z,20.58
2018-08-25T10:20:59.779Z,20.51
2018-08-25T10:21:59.844Z,20.70
2018-08-25T10:22:59.964Z,21.14
2018-08-25T10:23:59.973Z,21.14
2018-08-25T10:25:00.045Z,21.37
2018-08-25T10:26:00.196Z,21.83
2018-08-25T10:27:00.175Z,22.14
2018-08-25T10:28:00.241Z,22.28
2018-08-25T10:29:00.365Z,22.69
2018-08-25T10:30:00.377Z,22.17
2018-08-25T10:31:00.449Z,22.35
2018-08-25T10:32:00.516Z,22.00
2018-08-25T10:33:00.594Z,21.62
2018-08-25T10:34:00.645Z,20.90
2018-08-25T10:35:00.713Z,20.87
2018-08-25T10:36:00.793Z,20.60
2018-08-25T10:37:00.856Z,20.78
2018-08-25T10:38:00.917Z,20.59
2018-08-25T10:39:00.981Z,20.63
2018-08-25T10:40:01.049Z,20.56
2018-08-25T10:41:01.228Z,20.97
2018-08-25T10:42:01.234Z,21.43
2018-08-25T10:43:01.253Z,21.95
2018-08-25T10:44:01.324Z,21.21
2018-08-25T10:45:01.389Z,21.48
2018-08-25T10:46:01.461Z,21.15
2018-08-25T10:47:01.529Z,20.72
2018-08-25T10:48:01.605Z,20.26
2018-08-25T10:49:01.662Z,20.43
2018-08-25T10:50:01.725Z,20.50
2018-08-25T10:51:01.801Z,20.50
2018-08-25T10:52:01.865Z,20.32
2018-08-25T10:53:01.929Z,20.16
2018-08-25T10:54:02.069Z,20.06
2018-08-25T10:55:02.057Z,19.84
2018-08-25T10:56:02.216Z,19.77
2018-08-25T10:57:02.193Z,19.49
2018-08-25T10:58:02.261Z,19.21
2018-08-25T10:59:02.325Z,19.14
2018-08-25T11:00:02.427Z,18.77
2018-08-25T11:01:02.577Z,18.59
2018-08-25T11:02:02.533Z,18.50
2018-08-25T11:03:02.605Z,18.56
2018-08-25T11:04:02.662Z,18.40
2018-08-25T11:05:02.730Z,18.52
2018-08-25T11:06:02.801Z,18.90
2018-08-25T11:07:02.865Z,19.30
2018-08-25T11:08:02.929Z,19.51
2018-08-25T11:09:02.994Z,20.06
2018-08-25T11:10:03.070Z,20.37
2018-08-25T11:11:03.286Z,20.62
2018-08-25T11:12:03.194Z,20.80
2018-08-25T11:13:03.261Z,21.03
2018-08-25T11:14:03.326Z,21.15
2018-08-25T11:15:03.395Z,21.14
2018-08-25T11:16:03.466Z,20.96
2018-08-25T11:17:03.530Z,20.66
2018-08-25T11:18:03.594Z,20.55
2018-08-25T11:19:03.658Z,20.37
2018-08-25T11:20:03.725Z,20.74
2018-08-25T11:21:03.798Z,20.63
2018-08-25T11:22:03.866Z,20.55
2018-08-25T11:23:03.922Z,20.24
2018-08-25T11:24:03.990Z,20.18
2018-08-25T11:25:04.062Z,20.03
2018-08-25T11:26:04.398Z,19.96
2018-08-25T11:27:04.190Z,19.89
2018-08-25T11:28:04.258Z,19.81
2018-08-25T11:29:04.324Z,19.56
2018-08-25T11:30:04.390Z,20.02
2018-08-25T11:31:04.462Z,20.00
2018-08-25T11:32:04.530Z,20.19
2018-08-25T11:33:04.590Z,20.55
2018-08-25T11:34:04.662Z,20.52
2018-08-25T11:35:04.722Z,20.85
2018-08-25T11:36:04.795Z,20.92
2018-08-25T11:37:04.918Z,20.84
2018-08-25T11:38:04.961Z,20.56
2018-08-25T11:39:04.991Z,20.34
2018-08-25T11:40:05.059Z,20.37
2018-08-25T11:41:05.288Z,20.50
2018-08-25T11:42:05.190Z,20.29
2018-08-25T11:43:05.255Z,20.09
2018-08-25T11:44:05.400Z,20.06
2018-08-25T11:45:05.390Z,19.71
2018-08-25T11:46:05.468Z,19.81
2018-08-25T11:47:05.531Z,19.88
2018-08-25T11:48:05.592Z,19.94
2018-08-25T11:49:05.655Z,19.92
2018-08-25T11:50:05.729Z,19.92
2018-08-25T11:51:05.795Z,20.09
2018-08-25T11:52:05.863Z,20.00
2018-08-25T11:53:05.923Z,20.14
2018-08-25T11:54:06.031Z,20.07
2018-08-25T11:55:06.055Z,20.11
2018-08-25T11:56:06.403Z,20.03
2018-08-25T11:57:06.187Z,19.76
2018-08-25T11:58:06.256Z,19.77
2018-08-25T11:59:06.323Z,19.63
2018-08-25T12:00:06.388Z,19.58
2018-08-25T12:01:06.476Z,19.45
2018-08-25T12:02:06.572Z,19.48
2018-08-25T12:03:06.592Z,19.54
2018-08-25T12:04:06.659Z,19.55
2018-08-25T12:05:06.720Z,19.51
2018-08-25T12:06:06.797Z,19.45
2018-08-25T12:07:06.863Z,19.49
2018-08-25T12:08:06.920Z,19.67
2018-08-25T12:09:06.988Z,19.79
2018-08-25T12:10:07.055Z,19.71
2018-08-25T12:11:07.144Z,19.88
2018-08-25T12:12:07.184Z,19.88
2018-08-25T12:13:07.262Z,19.91
2018-08-25T12:14:07.325Z,19.86
2018-08-25T12:15:07.384Z,19.74
2018-08-25T12:16:07.456Z,19.79
2018-08-25T12:17:07.532Z,19.74
2018-08-25T12:18:07.584Z,19.70
2018-08-25T12:19:07.648Z,19.64
2018-08-25T12:20:07.718Z,19.58
2018-08-25T12:21:07.792Z,19.67
2018-08-25T12:22:07.856Z,19.76
2018-08-25T12:23:07.916Z,20.13
2018-08-25T12:24:07.986Z,20.18
2018-08-25T12:25:08.049Z,20.43
2018-08-25T12:26:08.142Z,20.87
2018-08-25T12:27:08.184Z,20.78
2018-08-25T12:28:08.248Z,20.67
2018-08-25T12:29:08.313Z,20.18
2018-08-25T12:30:08.381Z,19.69
2018-08-25T12:31:08.453Z,19.55
2018-08-25T12:32:08.521Z,19.40
2018-08-25T12:33:08.581Z,19.12
2018-08-25T12:34:08.648Z,18.98
2018-08-25T12:35:08.713Z,19.12
2018-08-25T12:36:08.786Z,19.26
2018-08-25T12:37:08.857Z,19.54
2018-08-25T12:38:08.917Z,19.96
2018-08-25T12:39:08.993Z,20.10
2018-08-25T12:40:09.049Z,19.94
2018-08-25T12:41:09.261Z,19.52
2018-08-25T12:42:09.181Z,19.41
2018-08-25T12:43:09.302Z,19.09
2018-08-25T12:44:09.313Z,18.95
2018-08-25T12:45:09.456Z,18.75
2018-08-25T12:46:09.449Z,18.40
2018-08-25T12:47:09.514Z,18.35
2018-08-25T12:48:09.580Z,18.20
2018-08-25T12:49:09.641Z,18.15
2018-08-25T12:50:09.709Z,18.18
2018-08-25T12:51:09.778Z,18.11
2018-08-25T12:52:09.849Z,18.26
2018-08-25T12:53:09.921Z,18.40